createdAt,value
2022-10-13T00:00:39.634Z,10.20
2022-10-13T00:03:07.451Z,10.10
2022-10-13T00:05:35.794Z,10.20
2022-10-13T00:08:03.481Z,10.20
2022-10-13T00:10:32.539Z,10.10
2022-10-13T00:13:00.211Z,10.20
2022-10-13T00:15:27.887Z,10.10
2022-10-13T00:17:55.586Z,10.10
2022-10-13T00:20:23.275Z,10.10
2022-10-13T00:22:51.067Z,10.10
2022-10-13T00:25:18.897Z,10.10
2022-10-13T00:27:47.966Z,10.10
2022-10-13T00:30:16.007Z,10.10
2022-10-13T00:32:43.701Z,10.10
2022-10-13T00:35:11.767Z,10.10
2022-10-13T00:37:39.462Z,10.10
2022-10-13T00:40:08.480Z,10.10
2022-10-13T00:42:36.174Z,10.20
2022-10-13T00:45:20.441Z,10.20
2022-10-13T00:47:51.346Z,10.20
2022-10-13T00:50:23.663Z,10.10
2022-10-13T00:52:53.713Z,10.20
2022-10-13T00:55:25.077Z,10.20
2022-10-13T00:57:55.944Z,10.10
2022-10-13T01:00:25.487Z,10.10
2022-10-13T01:02:53.827Z,10.10
2022-10-13T01:05:22.685Z,10.10
2022-10-13T01:07:51.814Z,10.00
2022-10-13T01:10:27.800Z,9.90
2022-10-13T01:13:02.203Z,9.90
2022-10-13T01:15:35.455Z,9.80
2022-10-13T01:18:14.872Z,9.70
2022-10-13T01:21:07.066Z,9.60
2022-10-13T01:23:55.321Z,9.50
2022-10-13T01:26:55.426Z,9.40
2022-10-13T01:30:02.634Z,9.30
2022-10-13T01:32:36.180Z,9.20
2022-10-13T01:35:09.401Z,9.00
2022-10-13T01:37:45.896Z,8.90
2022-10-13T01:40:19.661Z,8.80
2022-10-13T01:42:54.419Z,8.80
2022-10-13T01:45:30.750Z,8.70
2022-10-13T01:48:00.646Z,8.60
2022-10-13T01:50:29.305Z,8.60
2022-10-13T01:52:57.573Z,8.50
2022-10-13T01:55:25.366Z,8.40
2022-10-13T01:57:53.059Z,8.40
2022-10-13T02:00:23.732Z,8.30
2022-10-13T02:03:02.798Z,8.30
2022-10-13T02:05:38.652Z,8.20
2022-10-13T02:08:11.591Z,8.20
2022-10-13T02:10:47.160Z,8.10
2022-10-13T02:13:17.574Z,8.10
2022-10-13T02:19:01.928Z,8.00
2022-10-13T02:21:32.095Z,7.90
2022-10-13T02:24:00.298Z,7.90
2022-10-13T02:26:28.545Z,8.00
2022-10-13T02:28:56.307Z,8.00
2022-10-13T02:31:24.097Z,8.00
2022-10-13T02:33:51.920Z,8.00
2022-10-13T02:36:19.759Z,8.00
2022-10-13T02:38:49.104Z,7.90
2022-10-13T02:41:17.048Z,7.90
2022-10-13T02:43:44.915Z,8.00
2022-10-13T02:46:12.735Z,8.00
2022-10-13T02:48:40.589Z,8.00
2022-10-13T02:51:08.488Z,8.10
2022-10-13T02:53:36.502Z,8.20
2022-10-13T02:56:06.710Z,8.30
2022-10-13T02:58:34.608Z,8.30
2022-10-13T03:01:07.187Z,8.40
2022-10-13T03:03:38.397Z,8.50
2022-10-13T03:06:06.833Z,8.60
2022-10-13T03:08:35.510Z,8.70
2022-10-13T03:11:05.121Z,8.80
2022-10-13T03:13:33.122Z,8.90
2022-10-13T03:16:01.165Z,8.90
2022-10-13T03:18:29.265Z,9.00
2022-10-13T03:20:58.923Z,9.10
2022-10-13T03:23:27.115Z,9.20
2022-10-13T03:25:55.525Z,9.20
2022-10-13T03:28:25.067Z,9.30
2022-10-13T03:31:00.720Z,9.30
2022-10-13T03:33:28.718Z,9.30
2022-10-13T03:35:59.605Z,9.20
2022-10-13T03:38:27.701Z,9.20
2022-10-13T03:40:55.566Z,9.10
2022-10-13T03:43:25.299Z,9.10
2022-10-13T03:45:57.557Z,9.10
2022-10-13T03:48:26.065Z,9.00
2022-10-13T03:50:54.291Z,8.90
2022-10-13T03:53:22.552Z,8.90
2022-10-13T03:55:51.522Z,8.90
2022-10-13T03:58:19.630Z,8.80
2022-10-13T04:00:49.187Z,8.80
2022-10-13T04:03:17.909Z,8.80
2022-10-13T04:05:45.984Z,8.80
2022-10-13T04:08:20.321Z,8.80
2022-10-13T04:10:48.274Z,8.80
2022-10-13T04:13:18.477Z,8.90
2022-10-13T04:15:46.371Z,8.90
2022-10-13T04:18:15.775Z,9.00
2022-10-13T04:20:43.632Z,9.00
2022-10-13T04:23:11.695Z,9.00
2022-10-13T04:25:40.276Z,9.10
2022-10-13T04:28:08.585Z,9.10
2022-10-13T04:30:36.759Z,9.10
2022-10-13T04:33:05.248Z,9.20
2022-10-13T04:35:34.700Z,9.20
2022-10-13T04:38:02.555Z,9.20
2022-10-13T04:40:30.435Z,9.20
2022-10-13T04:42:58.299Z,9.20
2022-10-13T04:45:27.059Z,9.20
2022-10-13T04:47:54.887Z,9.10
2022-10-13T04:50:22.910Z,9.10
2022-10-13T04:52:52.015Z,9.00
2022-10-13T04:55:19.911Z,9.00
2022-10-13T04:57:47.792Z,9.00
2022-10-13T05:00:16.151Z,8.90
2022-10-13T05:02:44.245Z,8.90
2022-10-13T05:05:12.266Z,8.90
2022-10-13T05:07:40.023Z,8.90
2022-10-13T05:10:10.184Z,8.80
2022-10-13T05:12:37.987Z,8.80
2022-10-13T05:15:06.483Z,8.80
2022-10-13T05:17:35.476Z,8.80
2022-10-13T05:20:03.745Z,8.80
2022-10-13T05:22:31.669Z,8.80
2022-10-13T05:24:59.450Z,8.80
2022-10-13T05:27:31.994Z,8.80
2022-10-13T05:29:59.837Z,8.80
2022-10-13T05:32:27.636Z,8.80
2022-10-13T05:34:55.410Z,8.90
2022-10-13T05:37:23.400Z,9.00
2022-10-13T05:39:51.393Z,9.00
2022-10-13T05:42:19.594Z,9.00
2022-10-13T05:44:49.089Z,9.00
2022-10-13T05:47:16.939Z,9.10
2022-10-13T05:49:44.743Z,9.10
2022-10-13T05:52:13.606Z,9.10
2022-10-13T05:54:46.707Z,9.10
2022-10-13T05:57:17.971Z,9.20
2022-10-13T05:59:51.813Z,9.30
2022-10-13T06:02:22.670Z,9.30
2022-10-13T06:04:53.243Z,9.30
2022-10-13T06:07:22.236Z,9.30
2022-10-13T06:09:53.268Z,9.30
2022-10-13T06:12:21.696Z,9.30
2022-10-13T06:14:51.218Z,9.40
2022-10-13T06:17:19.212Z,9.40
2022-10-13T06:19:47.130Z,9.40
2022-10-13T06:22:15.229Z,9.40
2022-10-13T06:24:43.147Z,9.50
2022-10-13T06:27:11.516Z,9.50
2022-10-13T06:29:39.625Z,9.60
2022-10-13T06:32:08.893Z,9.60
2022-10-13T06:34:36.926Z,9.80
2022-10-13T06:37:04.913Z,9.80
2022-10-13T06:39:33.051Z,9.90
2022-10-13T06:42:01.231Z,9.90
2022-10-13T06:44:29.277Z,10.00
2022-10-13T06:46:57.445Z,10.10
2022-10-13T06:49:27.087Z,10.10
2022-10-13T06:51:56.771Z,10.10
2022-10-13T06:54:26.462Z,10.10
2022-10-13T06:56:54.420Z,10.20
2022-10-13T06:59:22.604Z,10.20
2022-10-13T07:01:52.046Z,10.30
2022-10-13T07:04:25.408Z,10.30
2022-10-13T07:06:57.648Z,10.30
2022-10-13T07:09:25.853Z,10.20
2022-10-13T07:11:54.307Z,10.20
2022-10-13T07:14:25.500Z,10.30
2022-10-13T07:16:53.409Z,10.40
2022-10-13T07:19:21.537Z,10.50
2022-10-13T07:21:49.577Z,10.50
2022-10-13T07:24:20.593Z,10.70
2022-10-13T07:26:48.990Z,10.80
2022-10-13T07:29:17.425Z,10.90
2022-10-13T07:31:46.348Z,11.00
2022-10-13T07:34:15.764Z,11.00
2022-10-13T07:40:28.977Z,11.10
2022-10-13T07:42:57.575Z,11.30
2022-10-13T07:45:40.594Z,11.30
2022-10-13T07:48:12.157Z,11.40
2022-10-13T07:50:43.247Z,11.40
2022-10-13T07:53:15.382Z,11.40
2022-10-13T07:55:49.805Z,11.40
2022-10-13T07:58:23.665Z,11.40
2022-10-13T08:00:59.550Z,11.50
2022-10-13T08:03:28.864Z,11.60
2022-10-13T08:06:22.619Z,11.70
2022-10-13T08:08:54.538Z,11.70
2022-10-13T08:11:24.556Z,11.70
2022-10-13T08:13:54.018Z,11.80
2022-10-13T08:16:25.105Z,11.80
2022-10-13T08:19:00.866Z,11.90
2022-10-13T08:24:23.589Z,12.00
2022-10-13T08:27:11.599Z,12.00
2022-10-13T08:29:43.052Z,12.00
2022-10-13T08:32:37.886Z,12.10
2022-10-13T08:35:16.634Z,12.20
2022-10-13T08:40:30.435Z,12.50
2022-10-13T08:43:05.329Z,12.60
2022-10-13T08:45:41.661Z,12.70
2022-10-13T08:48:26.214Z,12.70
2022-10-13T08:50:59.403Z,12.70
2022-10-13T08:54:02.928Z,12.70
2022-10-13T08:56:35.998Z,12.70
2022-10-13T09:02:58.411Z,12.80
2022-10-13T09:14:02.112Z,12.70
2022-10-13T09:16:47.329Z,12.80
2022-10-13T09:19:26.385Z,12.90
2022-10-13T09:23:21.908Z,13.00
2022-10-13T09:26:00.135Z,13.10
2022-10-13T09:32:49.119Z,13.30
2022-10-13T09:35:33.609Z,13.30
2022-10-13T09:38:24.018Z,13.50
2022-10-13T09:41:42.653Z,13.50
2022-10-13T09:47:58.934Z,13.70
2022-10-13T09:51:15.306Z,13.70
2022-10-13T09:53:52.476Z,13.80
2022-10-13T09:56:48.599Z,14.00
2022-10-13T10:02:36.996Z,14.40
2022-10-13T10:05:53.244Z,14.60
2022-10-13T10:09:05.264Z,14.80
2022-10-13T10:11:43.399Z,14.90
2022-10-13T10:17:52.171Z,15.10
2022-10-13T10:20:44.249Z,15.30
2022-10-13T10:23:29.821Z,15.30
2022-10-13T10:26:24.233Z,15.30
2022-10-13T10:29:21.209Z,15.30
2022-10-13T10:32:52.927Z,15.30
2022-10-13T10:35:36.672Z,15.30
2022-10-13T10:38:27.899Z,15.30
2022-10-13T10:41:40.591Z,15.40
2022-10-13T10:44:14.638Z,15.50
2022-10-13T10:46:47.172Z,15.60
2022-10-13T10:49:23.096Z,15.60
2022-10-13T10:51:55.678Z,15.60
2022-10-13T10:55:30.027Z,15.70
2022-10-13T10:58:32.419Z,15.80
2022-10-13T11:01:06.969Z,15.80
2022-10-13T11:03:43.387Z,15.90
2022-10-13T11:06:37.168Z,16.00
2022-10-13T11:09:08.655Z,16.10
2022-10-13T11:11:41.217Z,16.20
2022-10-13T11:14:31.976Z,16.30
2022-10-13T11:17:22.194Z,16.40
2022-10-13T11:23:37.937Z,16.20
2022-10-13T11:30:23.886Z,16.10
2022-10-13T11:37:34.979Z,16.00
2022-10-13T11:40:50.103Z,15.90
2022-10-13T11:44:04.498Z,15.90
2022-10-13T11:46:58.541Z,15.90
2022-10-13T11:50:29.306Z,16.00
2022-10-13T11:54:09.170Z,16.30
2022-10-13T12:16:11.648Z,17.30
2022-10-13T12:19:06.221Z,17.10
2022-10-13T12:21:53.874Z,17.10
2022-10-13T12:24:38.112Z,17.20
2022-10-13T12:28:36.111Z,17.30
2022-10-13T12:35:50.783Z,17.30
2022-10-13T12:38:33.175Z,17.30
2022-10-13T12:44:53.416Z,17.40
2022-10-13T12:47:40.692Z,17.30
2022-10-13T12:50:39.980Z,17.30
2022-10-13T12:53:37.142Z,17.40
2022-10-13T12:56:27.098Z,17.40
2022-10-13T13:16:59.977Z,17.30
2022-10-13T13:17:01.906Z,17.30
2022-10-13T13:19:48.036Z,17.30
2022-10-13T13:23:09.156Z,17.30
2022-10-13T13:26:09.129Z,17.30
2022-10-13T13:28:44.241Z,17.30
2022-10-13T13:35:22.940Z,17.20
2022-10-13T13:37:53.251Z,17.00
2022-10-13T13:40:31.610Z,17.00
2022-10-13T13:42:59.573Z,16.90
2022-10-13T13:45:30.074Z,16.90
2022-10-13T13:51:46.715Z,16.90
2022-10-13T13:55:07.406Z,16.90
2022-10-13T13:57:47.337Z,17.00
2022-10-13T14:00:57.603Z,16.90
2022-10-13T14:03:29.887Z,16.90
2022-10-13T14:06:00.519Z,16.90
2022-10-13T14:08:42.120Z,17.00
2022-10-13T14:14:41.671Z,17.00
2022-10-13T14:17:14.350Z,17.00
2022-10-13T14:19:43.907Z,17.00
2022-10-13T14:22:14.122Z,17.00
2022-10-13T14:24:49.389Z,17.10
2022-10-13T14:27:18.972Z,17.10
2022-10-13T14:29:51.880Z,17.10
2022-10-13T14:32:26.151Z,17.10
2022-10-13T14:35:06.412Z,17.20
2022-10-13T14:37:38.656Z,17.10
2022-10-13T14:40:10.848Z,17.10
2022-10-13T14:42:43.666Z,17.10
2022-10-13T14:45:58.731Z,17.10
2022-10-13T14:48:31.116Z,17.10
2022-10-13T14:51:00.887Z,17.10
2022-10-13T14:53:36.788Z,17.10
2022-10-13T14:56:31.379Z,17.10
2022-10-13T15:02:49.973Z,17.10
2022-10-13T15:09:25.554Z,17.00
2022-10-13T15:12:29.199Z,16.90
2022-10-13T15:15:12.563Z,17.00
2022-10-13T15:18:43.922Z,16.90
2022-10-13T15:22:29.263Z,17.00
2022-10-13T15:29:57.480Z,16.80
2022-10-13T15:37:38.615Z,16.70
2022-10-13T15:44:40.304Z,16.60
2022-10-13T15:48:43.866Z,16.60
2022-10-13T15:51:32.411Z,16.50
2022-10-13T16:01:33.840Z,16.50
2022-10-13T16:11:34.389Z,16.20
2022-10-13T16:14:03.508Z,16.20
2022-10-13T16:16:31.221Z,16.20
2022-10-13T16:18:59.399Z,16.20
2022-10-13T16:21:27.430Z,16.30
2022-10-13T16:23:55.195Z,16.30
2022-10-13T16:26:23.142Z,16.30
2022-10-13T16:28:54.652Z,16.30
2022-10-13T16:31:23.798Z,16.20
2022-10-13T16:33:51.627Z,16.30
2022-10-13T16:36:21.403Z,16.30
2022-10-13T16:38:49.155Z,16.20
2022-10-13T16:41:19.665Z,16.30
2022-10-13T16:43:48.993Z,16.30
2022-10-13T16:46:18.222Z,16.30
2022-10-13T16:48:48.213Z,16.30
2022-10-13T16:51:17.645Z,16.30
2022-10-13T16:53:49.492Z,16.30
2022-10-13T16:56:21.823Z,16.30
2022-10-13T16:58:50.102Z,16.20
2022-10-13T17:01:18.038Z,16.30
2022-10-13T17:03:48.069Z,16.30
2022-10-13T17:06:16.354Z,16.20
2022-10-13T17:08:44.971Z,16.20
2022-10-13T17:11:18.638Z,16.20
2022-10-13T17:13:47.302Z,16.20
2022-10-13T17:16:15.531Z,16.20
2022-10-13T17:18:43.427Z,16.20
2022-10-13T17:21:15.446Z,16.20
2022-10-13T17:23:48.405Z,16.20
2022-10-13T17:26:18.196Z,16.10
2022-10-13T17:28:46.337Z,16.10
2022-10-13T17:31:16.908Z,16.00
2022-10-13T17:33:46.176Z,15.80
2022-10-13T17:36:19.201Z,15.70
2022-10-13T17:38:47.992Z,15.70
2022-10-13T17:41:16.038Z,15.70
2022-10-13T17:43:44.310Z,15.60
2022-10-13T17:46:37.369Z,15.60
2022-10-13T17:49:01.837Z,15.50
2022-10-13T17:51:30.911Z,15.50
2022-10-13T17:54:00.171Z,15.50
2022-10-13T17:56:28.592Z,15.50
2022-10-13T17:58:56.930Z,15.50
2022-10-13T18:01:27.261Z,15.40
2022-10-13T18:03:57.367Z,15.40
2022-10-13T18:06:25.757Z,15.40
2022-10-13T18:08:55.011Z,15.40
2022-10-13T18:11:24.746Z,15.30
2022-10-13T18:13:53.007Z,15.30
2022-10-13T18:16:22.469Z,15.20
2022-10-13T18:18:51.585Z,15.20
2022-10-13T18:21:22.440Z,15.20
2022-10-13T18:23:50.390Z,15.20
2022-10-13T18:26:20.708Z,15.20
2022-10-13T18:28:50.155Z,15.10
2022-10-13T18:31:19.573Z,15.10
2022-10-13T18:33:47.872Z,15.10
2022-10-13T18:36:20.007Z,15.10
2022-10-13T18:38:47.984Z,15.10
2022-10-13T18:41:17.098Z,15.10
2022-10-13T18:43:46.163Z,15.10
2022-10-13T18:46:14.062Z,15.10
2022-10-13T18:48:42.723Z,15.10
2022-10-13T18:51:12.523Z,15.00
2022-10-13T18:53:41.998Z,15.00
2022-10-13T18:56:12.503Z,15.00
2022-10-13T18:58:40.333Z,15.00
2022-10-13T19:01:11.170Z,15.00
2022-10-13T19:03:40.839Z,15.00
2022-10-13T19:06:10.071Z,15.00
2022-10-13T19:08:38.274Z,15.00
2022-10-13T19:11:12.539Z,15.00
2022-10-13T19:13:40.581Z,15.00
2022-10-13T19:16:10.299Z,15.00
2022-10-13T19:18:38.286Z,15.00
2022-10-13T19:21:06.701Z,15.00
2022-10-13T19:23:35.193Z,15.00
2022-10-13T19:26:11.156Z,15.00
2022-10-13T19:28:42.335Z,15.00
2022-10-13T19:31:12.905Z,15.00
2022-10-13T19:33:44.732Z,15.00
2022-10-13T19:36:21.936Z,15.00
2022-10-13T19:38:50.311Z,15.00
2022-10-13T19:41:18.734Z,15.00
2022-10-13T19:43:46.517Z,15.00
2022-10-13T19:46:15.682Z,14.90
2022-10-13T19:48:44.687Z,14.90
2022-10-13T19:51:13.249Z,14.90
2022-10-13T19:53:41.569Z,14.90
2022-10-13T19:56:09.966Z,14.90
2022-10-13T19:58:38.283Z,14.80
2022-10-13T20:01:08.537Z,14.90
2022-10-13T20:03:38.258Z,14.80
2022-10-13T20:06:07.022Z,14.80
2022-10-13T20:08:34.787Z,14.80
2022-10-13T20:11:07.513Z,14.80
2022-10-13T20:13:35.609Z,14.80
2022-10-13T20:16:06.926Z,14.70
2022-10-13T20:18:34.778Z,14.70
2022-10-13T20:21:05.466Z,14.70
2022-10-13T20:23:34.220Z,14.70
2022-10-13T20:26:06.076Z,14.70
2022-10-13T20:28:34.060Z,14.70
2022-10-13T20:31:03.804Z,14.70
2022-10-13T20:33:31.821Z,14.70
2022-10-13T20:36:00.750Z,14.70
2022-10-13T20:38:29.976Z,14.70
2022-10-13T20:41:04.674Z,14.80
2022-10-13T20:43:32.524Z,14.80
2022-10-13T20:46:01.848Z,14.70
2022-10-13T20:48:51.184Z,14.70
2022-10-13T20:51:21.760Z,14.70
2022-10-13T20:53:51.670Z,14.70
2022-10-13T20:56:21.566Z,14.70
2022-10-13T20:58:49.755Z,14.70
2022-10-13T21:01:20.824Z,14.70
2022-10-13T21:03:52.497Z,14.70
2022-10-13T21:06:20.294Z,14.70
2022-10-13T21:08:48.671Z,14.70
2022-10-13T21:11:20.030Z,14.70
2022-10-13T21:13:48.650Z,14.70
2022-10-13T21:16:18.877Z,14.70
2022-10-13T21:18:48.948Z,14.70
2022-10-13T21:21:18.579Z,14.70
2022-10-13T21:23:46.396Z,14.70
2022-10-13T21:26:18.872Z,14.70
2022-10-13T21:28:51.465Z,14.70
2022-10-13T21:31:21.113Z,14.70
2022-10-13T21:33:49.387Z,14.70
2022-10-13T21:36:19.307Z,14.70
2022-10-13T21:38:47.893Z,14.70
2022-10-13T21:41:16.070Z,14.80
2022-10-13T21:43:43.852Z,14.80
2022-10-13T21:46:14.969Z,14.70
2022-10-13T21:48:43.239Z,14.70
2022-10-13T21:51:12.851Z,14.70
2022-10-13T21:53:40.675Z,14.70
2022-10-13T21:56:11.296Z,14.70
2022-10-13T21:58:39.368Z,14.70
2022-10-13T22:01:10.478Z,14.70
2022-10-13T22:03:41.503Z,14.70
2022-10-13T22:06:15.876Z,14.70
2022-10-13T22:08:48.102Z,14.70
2022-10-13T22:11:17.429Z,14.60
2022-10-13T22:13:45.390Z,14.60
2022-10-13T22:16:15.756Z,14.70
2022-10-13T22:18:45.163Z,14.70
2022-10-13T22:21:14.948Z,14.70
2022-10-13T22:23:42.924Z,14.70
2022-10-13T22:26:11.134Z,14.70
2022-10-13T22:28:39.765Z,14.70
2022-10-13T22:31:08.821Z,14.80
2022-10-13T22:33:38.281Z,14.70
2022-10-13T22:36:13.089Z,14.80
2022-10-13T22:38:40.825Z,14.80
2022-10-13T22:41:09.854Z,14.80
2022-10-13T22:43:38.111Z,14.80
2022-10-13T22:46:05.993Z,14.80
2022-10-13T22:48:39.679Z,14.80
2022-10-13T22:51:10.695Z,14.80
2022-10-13T22:53:38.879Z,14.70
2022-10-13T22:56:08.378Z,14.80
2022-10-13T22:58:36.612Z,14.80
2022-10-13T23:01:08.865Z,14.80
2022-10-13T23:03:37.329Z,14.80
2022-10-13T23:06:06.677Z,14.80
2022-10-13T23:08:35.861Z,14.80
2022-10-13T23:11:03.647Z,14.80
2022-10-13T23:13:31.677Z,14.80
2022-10-13T23:16:02.538Z,14.80
2022-10-13T23:18:30.215Z,14.70
2022-10-13T23:20:57.970Z,14.80
2022-10-13T23:23:25.695Z,14.80
2022-10-13T23:25:54.782Z,14.80
2022-10-13T23:28:22.585Z,14.80
2022-10-13T23:30:50.369Z,14.80
2022-10-13T23:33:18.068Z,14.80
2022-10-13T23:35:45.773Z,14.80
2022-10-13T23:38:13.481Z,14.80
2022-10-13T23:40:41.206Z,14.80
2022-10-13T23:43:10.314Z,14.80
2022-10-13T23:45:38.013Z,14.80
2022-10-13T23:48:06.470Z,14.80
2022-10-13T23:50:34.275Z,14.80
2022-10-13T23:53:02.407Z,14.80
2022-10-13T23:55:30.435Z,14.80
2022-10-13T23:57:58.197Z,14.80
